Time;durP1;ratioP1;P1;durP2;ratioP2;P2;SDS_P1;SDS_P2;PMS_P1;PMS_P2;Temp;Humidity;BMP_temperature;BMP_pressure;BME280_temperature;BME280_humidity;BME280_pressure;Samples;Min_cycle;Max_cycle;Signal;HPM_P1;HPM_P2
2021/11/04 00:01:41;;;;;;;10.67;8.13;;;15.60;58.30;;;;;;5046270;28;20926;-53
2021/11/04 00:04:07;;;;;;;12.70;8.40;;;15.60;58.40;;;;;;5045737;28;20451;-49
2021/11/04 00:06:33;;;;;;;8.30;7.37;;;15.60;58.30;;;;;;5048141;28;20232;-51
2021/11/04 00:08:58;;;;;;;9.10;7.23;;;15.60;58.40;;;;;;5054457;28;20205;-51
2021/11/04 00:11:24;;;;;;;10.03;7.87;;;15.70;58.30;;;;;;5041155;28;20850;-52
2021/11/04 00:13:50;;;;;;;9.40;7.13;;;15.70;58.10;;;;;;5044930;28;20197;-49
2021/11/04 00:16:15;;;;;;;8.00;7.20;;;15.70;57.80;;;;;;5042074;28;20250;-49
2021/11/04 00:18:41;;;;;;;8.67;7.43;;;15.60;57.90;;;;;;5048830;28;20302;-52
2021/11/04 00:21:07;;;;;;;8.90;7.03;;;15.60;58.00;;;;;;5054193;28;20581;-52
2021/11/04 00:23:32;;;;;;;8.80;7.90;;;15.60;58.40;;;;;;5061841;28;20191;-51
2021/11/04 00:25:59;;;;;;;9.60;7.10;;;15.50;58.40;;;;;;5048722;28;20208;-49
2021/11/04 00:28:25;;;;;;;6.93;6.30;;;15.50;58.40;;;;;;5048966;28;20201;-54
2021/11/04 00:30:50;;;;;;;7.50;6.73;;;15.50;58.10;;;;;;5046074;28;20767;-49
2021/11/04 00:33:16;;;;;;;10.07;8.63;;;15.40;57.90;;;;;;5044429;28;20261;-53
2021/11/04 00:35:42;;;;;;;9.30;8.23;;;15.40;58.00;;;;;;5049673;28;20196;-53
2021/11/04 00:38:07;;;;;;;10.90;8.50;;;15.20;58.10;;;;;;5035002;28;20236;-53
2021/11/04 00:40:33;;;;;;;15.30;10.97;;;15.10;58.60;;;;;;5042641;28;21000;-53
2021/11/04 00:42:59;;;;;;;17.00;12.57;;;15.00;59.20;;;;;;5050950;28;20192;-50
2021/11/04 00:45:25;;;;;;;14.43;11.07;;;14.90;59.60;;;;;;5036817;28;20931;-51
2021/11/04 00:47:52;;;;;;;8.73;7.50;;;14.80;59.70;;;;;;5047969;28;20474;-54
2021/11/04 00:50:20;;;;;;;9.40;7.70;;;14.70;60.30;;;;;;5047206;28;20189;-54
2021/11/04 00:52:46;;;;;;;7.73;6.97;;;14.60;60.80;;;;;;5053627;28;20483;-54
2021/11/04 00:55:12;;;;;;;10.30;7.90;;;14.50;60.70;;;;;;5054466;28;20533;-52
2021/11/04 00:57:38;;;;;;;11.13;8.40;;;14.50;60.80;;;;;;5046549;28;20195;-53
2021/11/04 01:00:07;;;;;;;11.43;8.07;;;14.50;60.80;;;;;;5056027;28;20617;-53
2021/11/04 01:02:33;;;;;;;11.57;8.87;;;14.50;60.70;;;;;;5052229;28;20442;-52
2021/11/04 01:04:59;;;;;;;17.50;12.47;;;14.50;60.60;;;;;;5057104;28;20448;-53
2021/11/04 01:07:24;;;;;;;12.53;9.33;;;14.50;60.60;;;;;;5044302;28;20231;-51
2021/11/04 01:09:50;;;;;;;8.50;7.60;;;14.50;60.50;;;;;;5058160;28;20295;-51
2021/11/04 01:12:15;;;;;;;9.13;8.07;;;14.50;60.60;;;;;;5054512;28;20306;-53
2021/11/04 01:14:42;;;;;;;8.60;7.70;;;14.50;60.50;;;;;;5046095;28;20300;-53
2021/11/04 01:17:07;;;;;;;8.77;7.87;;;14.50;60.60;;;;;;5052868;28;20246;-49
2021/11/04 01:19:33;;;;;;;8.23;7.10;;;14.40;60.40;;;;;;5057529;28;20478;-49
2021/11/04 01:21:59;;;;;;;7.90;7.10;;;14.50;60.30;;;;;;5040084;28;20628;-51
2021/11/04 01:24:25;;;;;;;8.33;7.53;;;14.40;60.00;;;;;;5047729;28;20196;-53
2021/11/04 01:26:50;;;;;;;6.70;6.10;;;14.40;60.20;;;;;;5037691;28;20286;-49
2021/11/04 01:29:16;;;;;;;9.50;7.27;;;14.40;60.40;;;;;;5042021;28;20621;-51
2021/11/04 01:31:42;;;;;;;7.13;6.43;;;14.40;60.20;;;;;;5051783;28;20235;-50
2021/11/04 01:34:08;;;;;;;8.40;7.10;;;14.40;60.30;;;;;;5055065;28;20192;-51
2021/11/04 01:36:34;;;;;;;9.20;7.17;;;14.40;60.30;;;;;;5056179;28;22266;-50
2021/11/04 01:38:59;;;;;;;7.57;6.80;;;14.40;60.40;;;;;;5054001;28;20189;-51
2021/11/04 01:41:25;;;;;;;11.80;7.20;;;14.40;60.50;;;;;;5045529;28;20238;-49
2021/11/04 01:43:51;;;;;;;7.57;6.87;;;14.40;60.80;;;;;;5049953;28;20231;-52
2021/11/04 01:46:23;;;;;;;6.90;6.20;;;14.30;60.80;;;;;;5051263;28;20564;-51
2021/11/04 01:48:49;;;;;;;8.03;6.27;;;14.30;60.90;;;;;;5059672;28;20275;-51
2021/11/04 01:51:16;;;;;;;7.63;6.93;;;14.30;61.00;;;;;;5052899;28;20493;-52
2021/11/04 01:53:42;;;;;;;7.53;6.80;;;14.30;61.20;;;;;;5050932;28;20449;-52
2021/11/04 01:56:08;;;;;;;8.10;7.30;;;14.20;61.20;;;;;;5057864;28;20448;-54
2021/11/04 01:58:33;;;;;;;10.23;5.73;;;14.20;61.60;;;;;;5047337;28;20223;-53
2021/11/04 02:00:59;;;;;;;6.23;5.63;;;14.20;61.50;;;;;;5051011;28;20185;-49
2021/11/04 02:03:30;;;;;;;3.43;3.07;;;14.20;61.20;;;;;;5055472;28;20188;-52
2021/11/04 02:06:09;;;;;;;2.00;1.90;;;14.20;60.80;;;;;;5043982;28;20184;-54
2021/11/04 02:09:08;;;;;;;3.40;2.20;;;13.90;59.60;;;;;;5051852;28;20914;-52
2021/11/04 02:11:49;;;;;;;1.80;1.67;;;13.90;59.80;;;;;;5052596;28;20465;-52
2021/11/04 02:14:31;;;;;;;3.93;2.03;;;13.80;60.60;;;;;;5046069;28;20458;-53
2021/11/04 02:17:00;;;;;;;2.60;2.40;;;13.60;61.30;;;;;;5048965;28;20442;-50
2021/11/04 02:19:55;;;;;;;2.03;1.93;;;13.60;61.50;;;;;;5045190;28;20476;-52
2021/11/04 02:22:26;;;;;;;1.57;1.47;;;13.60;61.70;;;;;;5047531;28;20509;-50
2021/11/04 02:24:58;;;;;;;1.83;1.73;;;13.40;61.60;;;;;;5042628;28;20459;-54
2021/11/04 02:27:23;;;;;;;2.10;2.00;;;13.40;61.80;;;;;;5051519;28;20814;-49
2021/11/04 02:29:49;;;;;;;1.70;1.60;;;13.30;61.60;;;;;;5054394;28;20442;-49
2021/11/04 02:32:15;;;;;;;2.00;1.90;;;13.30;61.60;;;;;;5051508;28;20224;-52
2021/11/04 02:34:41;;;;;;;4.30;2.10;;;13.30;61.30;;;;;;5054323;28;20443;-53
2021/11/04 02:37:08;;;;;;;1.60;1.50;;;13.10;61.90;;;;;;5044984;28;20189;-50
2021/11/04 02:39:35;;;;;;;1.90;1.80;;;13.10;61.80;;;;;;5045380;28;20991;-52
2021/11/04 02:42:02;;;;;;;1.87;1.77;;;13.10;61.60;;;;;;5052365;28;20488;-54
2021/11/04 02:44:28;;;;;;;1.77;1.67;;;13.10;61.50;;;;;;5051663;28;20458;-53
2021/11/04 02:46:56;;;;;;;1.77;1.67;;;13.10;61.20;;;;;;5046036;28;20444;-52
2021/11/04 02:49:23;;;;;;;1.70;1.60;;;13.10;61.20;;;;;;5058038;28;20445;-54
2021/11/04 02:51:49;;;;;;;1.90;1.80;;;12.90;61.40;;;;;;5047129;28;20532;-52
2021/11/04 02:54:15;;;;;;;1.67;1.57;;;12.80;61.40;;;;;;5050752;28;21033;-54
2021/11/04 02:56:53;;;;;;;1.90;1.80;;;12.90;61.40;;;;;;5051981;28;20268;-53
2021/11/04 02:59:21;;;;;;;2.70;1.77;;;13.00;61.10;;;;;;5050779;28;20209;-51
2021/11/04 03:01:50;;;;;;;3.40;1.90;;;13.00;60.80;;;;;;5042466;28;20451;-52
2021/11/04 03:04:17;;;;;;;1.60;1.50;;;12.90;60.50;;;;;;5055297;28;20449;-53
2021/11/04 03:06:44;;;;;;;2.10;2.00;;;13.00;60.50;;;;;;5053511;28;20438;-52
2021/11/04 03:09:10;;;;;;;2.50;1.87;;;12.90;60.70;;;;;;5043390;28;20447;-50
2021/11/04 03:11:35;;;;;;;1.80;1.70;;;13.00;60.60;;;;;;5049551;28;20490;-52
2021/11/04 03:14:01;;;;;;;1.90;1.80;;;13.00;60.30;;;;;;5045638;28;20193;-52
2021/11/04 03:16:33;;;;;;;3.43;2.13;;;13.00;60.10;;;;;;5050517;28;20184;-53
2021/11/04 03:18:59;;;;;;;1.83;1.73;;;13.10;59.90;;;;;;5046856;28;20482;-54
2021/11/04 03:21:27;;;;;;;2.03;1.70;;;13.10;59.90;;;;;;5047904;28;20451;-49
2021/11/04 03:23:53;;;;;;;2.33;2.17;;;13.00;59.90;;;;;;5048501;28;20210;-52
2021/11/04 03:26:20;;;;;;;1.90;1.80;;;13.10;59.90;;;;;;5049962;28;20442;-48
2021/11/04 03:28:46;;;;;;;2.60;2.40;;;13.00;59.90;;;;;;5052461;28;20918;-50
2021/11/04 03:31:14;;;;;;;2.10;1.90;;;13.00;60.10;;;;;;5041162;28;20494;-54
2021/11/04 03:33:41;;;;;;;2.13;1.93;;;12.90;60.00;;;;;;5049976;28;20438;-53
2021/11/04 03:36:07;;;;;;;1.93;1.83;;;12.90;59.90;;;;;;5052092;28;20434;-50
2021/11/04 03:38:34;;;;;;;2.00;1.90;;;12.90;60.00;;;;;;5050969;28;20461;-53
2021/11/04 03:41:00;;;;;;;2.97;2.50;;;12.90;60.30;;;;;;5055476;28;20485;-50
2021/11/04 03:43:27;;;;;;;2.40;1.90;;;12.90;60.60;;;;;;5048118;28;20511;-54
2021/11/04 03:45:53;;;;;;;2.57;2.00;;;12.80;60.40;;;;;;5046829;28;20477;-52
2021/11/04 03:48:19;;;;;;;2.80;2.13;;;12.80;60.20;;;;;;5057656;28;20458;-50
2021/11/04 03:50:46;;;;;;;1.77;1.67;;;12.90;60.00;;;;;;5050754;28;20442;-49
2021/11/04 03:53:14;;;;;;;2.03;1.93;;;12.90;59.90;;;;;;5047415;28;20496;-49
2021/11/04 03:55:40;;;;;;;2.37;2.17;;;12.90;59.90;;;;;;5052607;28;20491;-49
2021/11/04 03:58:08;;;;;;;2.80;2.13;;;12.90;59.70;;;;;;5047945;28;20435;-53
2021/11/04 04:00:34;;;;;;;2.70;2.50;;;12.90;59.90;;;;;;5052453;28;20191;-51
2021/11/04 04:03:00;;;;;;;3.53;2.37;;;12.90;59.80;;;;;;5050246;28;20502;-49
2021/11/04 04:05:28;;;;;;;2.50;2.30;;;12.90;59.70;;;;;;5045362;28;20258;-52
2021/11/04 04:07:54;;;;;;;2.40;2.20;;;12.80;59.60;;;;;;5037100;28;20953;-53
2021/11/04 04:10:19;;;;;;;2.27;2.07;;;12.80;59.50;;;;;;5044048;28;20542;-49
2021/11/04 04:12:46;;;;;;;2.67;2.47;;;12.90;59.50;;;;;;5046088;28;20219;-53
2021/11/04 04:15:12;;;;;;;2.07;1.97;;;12.90;59.60;;;;;;5057557;28;20203;-49
2021/11/04 04:17:38;;;;;;;2.37;2.17;;;12.90;59.60;;;;;;5042176;28;20799;-50
2021/11/04 04:20:04;;;;;;;3.27;2.80;;;12.90;59.50;;;;;;5044109;28;20225;-53
2021/11/04 04:22:30;;;;;;;2.30;2.10;;;12.90;59.50;;;;;;5045370;28;20196;-52
2021/11/04 04:24:55;;;;;;;5.60;2.07;;;12.90;59.40;;;;;;5058766;28;20426;-53
2021/11/04 04:27:21;;;;;;;3.17;2.23;;;12.90;59.30;;;;;;5056057;28;20284;-48
2021/11/04 04:29:47;;;;;;;2.27;2.10;;;12.80;59.30;;;;;;5051733;28;20189;-49
2021/11/04 04:32:13;;;;;;;2.87;2.30;;;12.80;59.40;;;;;;5049072;28;20298;-51
2021/11/04 04:34:39;;;;;;;2.80;2.60;;;12.90;59.40;;;;;;5053559;28;20192;-52
2021/11/04 04:37:05;;;;;;;2.80;2.60;;;12.80;59.60;;;;;;5049438;28;20953;-49
2021/11/04 04:39:33;;;;;;;2.73;2.53;;;12.80;59.50;;;;;;5065987;28;20446;-51
2021/11/04 04:42:00;;;;;;;2.53;2.33;;;12.80;59.50;;;;;;5055422;28;20191;-51
2021/11/04 04:44:26;;;;;;;2.80;2.60;;;12.80;59.50;;;;;;5054690;28;21005;-54
2021/11/04 04:46:52;;;;;;;2.77;2.57;;;12.90;59.50;;;;;;5048443;28;20504;-49
2021/11/04 04:49:17;;;;;;;2.63;2.33;;;12.80;59.50;;;;;;5048968;28;20451;-48
2021/11/04 04:51:43;;;;;;;2.73;2.53;;;12.80;59.50;;;;;;5053119;28;20220;-50
2021/11/04 04:54:09;;;;;;;2.47;2.27;;;12.80;59.50;;;;;;5053713;28;20250;-50
2021/11/04 04:56:34;;;;;;;3.33;2.60;;;12.90;59.60;;;;;;5043122;28;20200;-53
2021/11/04 04:59:01;;;;;;;2.60;2.40;;;12.80;59.50;;;;;;5053250;28;20962;-51
2021/11/04 05:01:26;;;;;;;3.77;3.07;;;12.80;59.50;;;;;;5058062;28;20204;-49
2021/11/04 05:03:52;;;;;;;3.17;2.87;;;12.80;59.60;;;;;;5052119;28;20455;-53
2021/11/04 05:06:18;;;;;;;9.70;5.90;;;12.80;59.70;;;;;;5054084;28;20257;-53
2021/11/04 05:08:43;;;;;;;3.77;3.40;;;12.80;59.80;;;;;;5048702;28;20654;-49
2021/11/04 05:11:09;;;;;;;3.80;2.90;;;12.80;59.80;;;;;;5048333;28;20201;-50
2021/11/04 05:13:35;;;;;;;2.97;2.73;;;12.80;59.90;;;;;;5053249;28;20779;-52
2021/11/04 05:16:01;;;;;;;5.67;3.13;;;12.80;59.80;;;;;;5053298;28;20199;-53
2021/11/04 05:18:27;;;;;;;2.80;2.60;;;12.80;59.50;;;;;;5052053;28;20279;-53
2021/11/04 05:20:52;;;;;;;3.00;2.80;;;12.80;59.50;;;;;;5048426;28;20439;-53
2021/11/04 05:23:18;;;;;;;3.10;2.90;;;12.80;59.70;;;;;;5042621;28;20208;-49
2021/11/04 05:25:44;;;;;;;2.83;2.53;;;12.80;59.80;;;;;;5050944;28;20200;-52
2021/11/04 05:28:09;;;;;;;3.70;2.90;;;12.80;60.00;;;;;;5066829;28;20196;-53
2021/11/04 05:30:35;;;;;;;5.63;3.00;;;12.80;60.20;;;;;;5043371;28;20971;-50
2021/11/04 05:33:00;;;;;;;3.10;2.80;;;12.80;60.00;;;;;;5056778;28;20227;-49
2021/11/04 05:35:28;;;;;;;3.10;2.80;;;12.80;60.20;;;;;;5055238;28;20193;-53
2021/11/04 05:37:54;;;;;;;2.80;2.60;;;12.80;60.10;;;;;;5054342;28;20272;-50
2021/11/04 05:40:20;;;;;;;3.60;3.00;;;12.80;60.10;;;;;;5057394;28;20439;-50
2021/11/04 05:42:45;;;;;;;2.90;2.40;;;12.80;60.20;;;;;;5043835;28;20193;-54
2021/11/04 05:45:11;;;;;;;2.43;2.23;;;12.80;60.20;;;;;;5041383;28;20192;-53
2021/11/04 05:47:37;;;;;;;2.87;2.43;;;12.70;60.10;;;;;;5049618;28;20636;-49
2021/11/04 05:50:04;;;;;;;2.53;2.30;;;12.70;59.80;;;;;;5061109;28;20203;-51
2021/11/04 05:52:29;;;;;;;3.13;2.60;;;12.70;60.60;;;;;;5060034;28;20228;-53
2021/11/04 05:54:56;;;;;;;2.80;2.57;;;12.70;59.70;;;;;;5046239;28;20435;-53
2021/11/04 05:57:22;;;;;;;2.77;2.57;;;12.80;59.40;;;;;;5047887;28;20189;-51
2021/11/04 05:59:48;;;;;;;2.87;2.67;;;12.80;59.50;;;;;;5052525;28;20466;-53
2021/11/04 06:02:13;;;;;;;2.50;2.17;;;12.80;59.40;;;;;;5054859;28;20524;-53
2021/11/04 06:04:43;;;;;;;3.53;2.57;;;12.80;59.30;;;;;;5047134;28;20189;-49
2021/11/04 06:07:09;;;;;;;2.70;2.50;;;12.90;59.10;;;;;;5048361;28;20208;-51
2021/11/04 06:09:34;;;;;;;2.73;2.53;;;12.90;59.20;;;;;;5049904;28;20443;-53
2021/11/04 06:12:00;;;;;;;2.57;2.37;;;12.90;59.50;;;;;;5042078;28;20843;-53
2021/11/04 06:14:25;;;;;;;5.03;2.80;;;12.90;59.60;;;;;;5044579;28;20231;-53
2021/11/04 06:16:52;;;;;;;2.73;2.37;;;12.90;59.80;;;;;;5051147;28;20191;-52
2021/11/04 06:19:18;;;;;;;2.77;2.30;;;13.00;60.80;;;;;;5051255;28;20238;-52
2021/11/04 06:21:44;;;;;;;4.10;2.33;;;13.30;61.60;;;;;;5035608;28;20452;-53
2021/11/04 06:24:10;;;;;;;3.47;3.20;;;13.50;61.70;;;;;;5054803;28;20439;-53
2021/11/04 06:26:36;;;;;;;4.87;3.10;;;13.70;61.50;;;;;;5052668;28;20652;-50
2021/11/04 06:29:02;;;;;;;1.90;1.80;;;13.80;60.20;;;;;;5049790;28;20212;-53
2021/11/04 06:31:27;;;;;;;2.07;1.87;;;13.90;59.40;;;;;;5052009;28;20212;-52
2021/11/04 06:33:53;;;;;;;4.00;2.27;;;14.00;58.90;;;;;;5050489;28;20511;-49
2021/11/04 06:36:18;;;;;;;2.30;2.13;;;14.00;58.30;;;;;;5047434;28;20197;-52
2021/11/04 06:38:44;;;;;;;1.93;1.83;;;14.10;58.00;;;;;;5041139;28;20224;-52
2021/11/04 06:41:10;;;;;;;1.40;1.30;;;14.10;57.60;;;;;;5047185;28;20279;-53
2021/11/04 06:43:35;;;;;;;1.40;1.30;;;14.10;57.30;;;;;;5037297;28;20232;-53
2021/11/04 06:46:02;;;;;;;2.13;1.23;;;14.10;57.00;;;;;;5045754;28;20195;-49
2021/11/04 06:48:42;;;;;;;1.40;1.30;;;14.00;56.50;;;;;;5034954;28;20633;-53
2021/11/04 06:51:13;;;;;;;1.23;1.13;;;14.00;56.70;;;;;;5047124;28;20471;-49
2021/11/04 06:53:45;;;;;;;1.40;1.30;;;13.90;56.50;;;;;;5040976;28;20848;-50
2021/11/04 06:56:11;;;;;;;1.30;1.20;;;13.90;56.40;;;;;;5036038;28;20810;-49
2021/11/04 06:58:38;;;;;;;1.37;1.27;;;13.90;56.40;;;;;;5043508;28;20500;-52
2021/11/04 07:01:10;;;;;;;2.67;1.30;;;13.80;56.30;;;;;;5043972;28;20462;-49
2021/11/04 07:03:56;;;;;;;1.50;1.40;;;13.80;56.00;;;;;;5045199;28;20427;-53
2021/11/04 07:06:24;;;;;;;1.27;1.10;;;13.80;56.10;;;;;;5050331;28;21218;-52
2021/11/04 07:08:57;;;;;;;1.30;1.20;;;13.60;55.70;;;;;;5038583;28;20443;-53
2021/11/04 07:11:24;;;;;;;0.97;0.93;;;13.60;55.90;;;;;;5046502;28;20434;-53
2021/11/04 07:13:51;;;;;;;1.40;1.30;;;13.60;56.00;;;;;;5041608;28;20486;-49
2021/11/04 07:16:21;;;;;;;1.70;1.60;;;13.70;56.50;;;;;;5042228;28;20512;-53
2021/11/04 07:18:52;;;;;;;2.60;1.50;;;13.80;56.50;;;;;;5050242;28;20568;-53
2021/11/04 07:21:49;;;;;;;2.97;1.43;;;14.00;56.50;;;;;;5049407;28;20533;-49
2021/11/04 07:24:30;;;;;;;1.77;1.50;;;14.00;56.40;;;;;;5042888;28;20444;-53
2021/11/04 07:27:13;;;;;;;1.67;1.57;;;14.00;56.30;;;;;;5078447;28;20472;-50
2021/11/04 07:29:42;;;;;;;2.20;2.00;;;14.00;56.30;;;;;;5049974;28;20756;-53
2021/11/04 07:32:11;;;;;;;2.80;2.60;;;13.90;56.30;;;;;;5045072;28;20494;-52
2021/11/04 07:34:37;;;;;;;1.80;1.70;;;13.90;56.40;;;;;;5036481;28;20432;-52
2021/11/04 07:37:05;;;;;;;2.27;2.07;;;14.00;56.30;;;;;;5046475;28;20438;-53
2021/11/04 07:39:31;;;;;;;3.03;1.97;;;13.90;56.30;;;;;;5042356;28;20197;-52
2021/11/04 07:41:57;;;;;;;1.60;1.50;;;14.00;56.50;;;;;;5036935;28;20465;-51
2021/11/04 07:44:22;;;;;;;4.10;1.67;;;14.00;56.50;;;;;;5042983;28;20439;-52
2021/11/04 07:46:48;;;;;;;1.60;1.50;;;14.00;56.40;;;;;;5050980;28;20427;-51
2021/11/04 07:49:14;;;;;;;1.37;1.23;;;14.00;56.50;;;;;;5041293;28;20200;-52
2021/11/04 07:51:40;;;;;;;1.40;1.30;;;14.10;56.70;;;;;;5046341;28;20564;-53
2021/11/04 07:54:06;;;;;;;3.20;1.60;;;14.10;56.70;;;;;;5049216;28;20252;-50
2021/11/04 07:56:34;;;;;;;1.40;1.30;;;14.10;56.70;;;;;;5045264;28;21106;-51
2021/11/04 07:59:00;;;;;;;1.50;1.40;;;14.10;56.60;;;;;;5042906;28;20608;-48
2021/11/04 08:01:26;;;;;;;1.43;1.33;;;14.10;56.50;;;;;;5036066;28;20530;-52
2021/11/04 08:03:52;;;;;;;1.50;1.40;;;14.10;56.50;;;;;;5049654;28;20224;-53
2021/11/04 08:06:17;;;;;;;1.47;1.30;;;14.10;56.30;;;;;;5054681;28;20470;-49
2021/11/04 08:08:43;;;;;;;1.50;1.40;;;14.00;56.30;;;;;;5048475;28;20211;-52
2021/11/04 08:11:08;;;;;;;1.73;1.63;;;14.00;56.40;;;;;;5054407;28;20271;-48
2021/11/04 08:13:34;;;;;;;1.73;1.40;;;14.00;56.60;;;;;;5052837;28;20234;-51
2021/11/04 08:16:00;;;;;;;2.53;1.50;;;14.00;56.90;;;;;;5042988;28;20279;-50
2021/11/04 08:18:25;;;;;;;2.43;1.50;;;14.00;57.10;;;;;;5050781;28;20208;-51
2021/11/04 08:20:51;;;;;;;1.30;1.20;;;14.00;57.00;;;;;;5054519;28;20192;-49
2021/11/04 08:23:17;;;;;;;1.60;1.50;;;14.00;57.20;;;;;;5047043;28;20200;-52
2021/11/04 08:25:44;;;;;;;1.93;1.50;;;14.00;57.30;;;;;;5044092;28;20478;-53
2021/11/04 08:28:10;;;;;;;1.70;1.60;;;14.00;57.30;;;;;;5049209;28;20275;-48
2021/11/04 08:30:38;;;;;;;1.30;1.20;;;14.00;57.20;;;;;;5042478;28;20465;-49
2021/11/04 08:33:04;;;;;;;1.73;1.37;;;14.00;57.20;;;;;;5054779;28;20566;-52
2021/11/04 08:35:30;;;;;;;2.30;2.20;;;13.90;57.10;;;;;;5040496;28;20512;-52
2021/11/04 08:37:56;;;;;;;2.73;2.50;;;13.90;57.30;;;;;;5041120;28;20197;-50
2021/11/04 08:40:21;;;;;;;4.43;3.13;;;13.90;57.40;;;;;;5049158;28;20193;-50
2021/11/04 08:42:47;;;;;;;2.70;2.20;;;13.80;57.50;;;;;;5043400;28;20564;-51
2021/11/04 08:45:14;;;;;;;4.43;3.20;;;13.80;57.20;;;;;;5055678;28;20205;-53
2021/11/04 08:47:40;;;;;;;2.70;2.27;;;13.80;57.40;;;;;;5042381;28;20439;-52
2021/11/04 08:50:08;;;;;;;2.33;1.80;;;13.70;57.50;;;;;;5040943;28;20534;-53
2021/11/04 08:52:34;;;;;;;1.60;1.50;;;13.60;57.60;;;;;;5039659;28;21363;-51
2021/11/04 08:55:02;;;;;;;1.67;1.57;;;13.60;57.50;;;;;;5050747;28;20525;-51
2021/11/04 08:57:28;;;;;;;1.60;1.50;;;13.50;57.80;;;;;;5035373;28;20506;-52
2021/11/04 08:59:53;;;;;;;1.80;1.70;;;13.40;57.80;;;;;;5041179;28;20912;-51
2021/11/04 09:02:21;;;;;;;2.03;1.40;;;13.50;58.10;;;;;;5046418;28;20439;-52
2021/11/04 09:04:47;;;;;;;2.30;2.10;;;13.30;58.10;;;;;;5044359;28;20201;-51
2021/11/04 09:07:21;;;;;;;2.60;2.37;;;13.40;58.20;;;;;;5041317;28;20439;-49
2021/11/04 09:09:48;;;;;;;3.90;2.40;;;13.40;58.40;;;;;;5041878;28;20456;-51
2021/11/04 09:12:15;;;;;;;3.30;2.00;;;13.40;58.70;;;;;;5043819;28;20491;-52
2021/11/04 09:14:42;;;;;;;4.10;3.27;;;13.40;58.90;;;;;;5057526;28;20984;-53
2021/11/04 09:17:08;;;;;;;2.87;2.67;;;13.20;59.00;;;;;;5049758;28;20438;-52
2021/11/04 09:19:34;;;;;;;3.47;3.17;;;13.10;59.50;;;;;;5039612;28;20477;-50
2021/11/04 09:21:59;;;;;;;5.00;3.23;;;13.10;59.70;;;;;;5048689;28;20445;-53
2021/11/04 09:24:30;;;;;;;4.00;3.10;;;12.90;59.90;;;;;;5039167;28;20196;-52
2021/11/04 09:26:58;;;;;;;6.27;4.67;;;12.90;60.40;;;;;;5044604;28;20232;-49
2021/11/04 09:29:25;;;;;;;8.07;4.03;;;12.90;60.70;;;;;;5036646;28;20439;-50
2021/11/04 09:31:51;;;;;;;3.13;2.83;;;12.70;60.80;;;;;;5048890;28;20564;-52
2021/11/04 09:34:17;;;;;;;3.50;3.20;;;12.80;61.40;;;;;;5039911;28;20436;-50
2021/11/04 09:36:43;;;;;;;2.53;2.33;;;12.80;61.10;;;;;;5044148;28;20200;-51
2021/11/04 09:39:09;;;;;;;2.70;2.47;;;12.70;61.80;;;;;;5044327;28;20443;-50
2021/11/04 09:41:34;;;;;;;4.23;2.20;;;12.30;62.30;;;;;;5038116;28;20207;-52
2021/11/04 09:44:03;;;;;;;2.80;2.50;;;12.00;64.00;;;;;;5049554;28;20559;-52
2021/11/04 09:46:28;;;;;;;3.70;2.23;;;12.10;64.10;;;;;;5049821;28;20203;-50
2021/11/04 09:48:54;;;;;;;10.13;6.60;;;12.20;63.80;;;;;;5049799;28;21270;-49
2021/11/04 09:51:21;;;;;;;4.83;3.67;;;12.10;64.20;;;;;;5048787;28;20200;-51
2021/11/04 09:53:48;;;;;;;3.33;2.73;;;11.90;65.00;;;;;;5043692;28;20481;-53
2021/11/04 09:56:15;;;;;;;4.20;2.40;;;11.40;65.70;;;;;;5043972;28;20469;-51
2021/11/04 09:58:42;;;;;;;1.90;1.80;;;11.40;67.10;;;;;;5065147;28;20423;-50
2021/11/04 10:01:18;;;;;;;2.10;1.90;;;11.50;67.20;;;;;;5048256;28;20478;-49
2021/11/04 10:03:45;;;;;;;2.23;2.00;;;11.60;66.60;;;;;;5046536;28;20518;-50
2021/11/04 10:06:32;;;;;;;2.63;2.43;;;11.50;66.90;;;;;;5050669;28;20496;-48
2021/11/04 10:09:01;;;;;;;4.27;3.30;;;11.60;66.80;;;;;;5038522;28;20440;-51
2021/11/04 10:11:30;;;;;;;3.40;2.00;;;11.60;67.20;;;;;;5045696;28;20492;-49
2021/11/04 10:14:11;;;;;;;2.30;2.10;;;11.80;66.70;;;;;;5047584;28;20446;-49
2021/11/04 10:16:39;;;;;;;4.27;1.80;;;11.60;66.50;;;;;;5043891;28;20477;-51
2021/11/04 10:19:09;;;;;;;1.40;1.30;;;11.70;67.40;;;;;;5051354;28;20949;-49
2021/11/04 10:21:36;;;;;;;1.57;1.23;;;11.70;66.70;;;;;;5047094;28;20444;-50
2021/11/04 10:24:03;;;;;;;1.40;1.20;;;11.70;66.90;;;;;;5051420;28;20438;-50
2021/11/04 10:26:34;;;;;;;1.50;1.20;;;11.50;66.40;;;;;;5046790;28;20922;-49
2021/11/04 10:29:03;;;;;;;1.40;1.30;;;11.60;66.60;;;;;;5042159;28;20428;-49
2021/11/04 10:31:44;;;;;;;3.23;2.53;;;11.80;66.10;;;;;;5040953;28;20439;-49
2021/11/04 10:34:33;;;;;;;2.87;2.57;;;11.70;65.90;;;;;;5034172;28;20432;-51
2021/11/04 10:37:10;;;;;;;1.50;1.40;;;11.80;65.90;;;;;;5049691;28;20436;-53
2021/11/04 10:39:40;;;;;;;3.97;2.53;;;11.70;65.50;;;;;;5045081;28;20444;-53
2021/11/04 10:42:07;;;;;;;5.60;2.63;;;11.70;65.50;;;;;;5046491;28;20519;-52
2021/11/04 10:44:33;;;;;;;1.73;1.60;;;11.80;66.00;;;;;;5040500;28;20436;-49
2021/11/04 10:46:58;;;;;;;5.47;1.87;;;11.90;65.80;;;;;;5049803;28;20427;-50
2021/11/04 10:49:40;;;;;;;1.30;1.20;;;11.90;65.70;;;;;;5038185;28;20428;-53
2021/11/04 10:52:08;;;;;;;2.37;1.50;;;11.60;65.80;;;;;;5040146;28;20228;-52
2021/11/04 10:54:49;;;;;;;1.40;1.30;;;11.50;66.00;;;;;;5047215;28;20450;-51
2021/11/04 10:57:43;;;;;;;2.50;1.37;;;11.60;66.70;;;;;;5036880;28;20438;-51
2021/11/04 11:00:18;;;;;;;1.77;1.67;;;11.50;67.00;;;;;;5036169;28;20538;-49
2021/11/04 11:03:11;;;;;;;2.13;1.60;;;11.60;67.00;;;;;;5049880;28;20485;-49
2021/11/04 11:05:39;;;;;;;3.07;1.60;;;11.40;66.90;;;;;;5038645;28;20525;-49
2021/11/04 11:08:05;;;;;;;1.60;1.50;;;11.30;66.90;;;;;;5049692;28;20497;-52
2021/11/04 11:10:32;;;;;;;2.33;1.90;;;11.50;67.60;;;;;;5045802;28;20432;-51
2021/11/04 11:12:58;;;;;;;2.90;1.57;;;11.70;67.60;;;;;;5041278;28;20589;-51
2021/11/04 11:15:24;;;;;;;2.80;2.53;;;11.60;67.00;;;;;;5045942;28;20467;-50
2021/11/04 11:17:51;;;;;;;2.53;2.30;;;11.70;66.90;;;;;;5049422;28;20220;-50
2021/11/04 11:20:17;;;;;;;2.50;1.90;;;11.60;67.30;;;;;;5050513;28;20609;-52
2021/11/04 11:22:43;;;;;;;2.53;2.33;;;11.70;67.60;;;;;;5043969;28;20486;-48
2021/11/04 11:25:09;;;;;;;2.70;2.50;;;11.50;67.50;;;;;;5043870;28;20451;-53
2021/11/04 11:27:36;;;;;;;4.40;2.43;;;11.70;67.60;;;;;;5040448;28;20420;-52
2021/11/04 11:30:08;;;;;;;4.07;2.73;;;11.80;67.50;;;;;;5045413;28;20452;-51
2021/11/04 11:32:34;;;;;;;2.57;2.37;;;11.70;67.40;;;;;;5039140;28;20845;-50
2021/11/04 11:35:19;;;;;;;3.30;2.70;;;11.80;67.50;;;;;;5042611;28;20490;-52
2021/11/04 11:38:08;;;;;;;3.83;2.53;;;11.80;66.90;;;;;;5040960;28;20201;-48
2021/11/04 11:40:37;;;;;;;3.90;2.93;;;11.90;66.80;;;;;;5051470;28;20432;-53
2021/11/04 11:43:12;;;;;;;3.50;3.07;;;11.80;66.80;;;;;;5044137;28;20446;-49
2021/11/04 11:45:40;;;;;;;5.13;3.37;;;11.90;66.80;;;;;;5034506;28;20797;-53
2021/11/04 11:48:24;;;;;;;8.23;3.60;;;12.00;66.60;;;;;;5047243;28;20435;-50
2021/11/04 11:50:54;;;;;;;4.20;3.60;;;12.00;66.20;;;;;;5040290;28;20472;-52
2021/11/04 11:53:26;;;;;;;5.43;4.50;;;12.20;66.10;;;;;;5042508;28;20502;-53
2021/11/04 11:55:58;;;;;;;5.10;4.60;;;12.00;65.50;;;;;;5045932;28;20992;-51
2021/11/04 11:58:29;;;;;;;5.60;5.07;;;11.80;66.20;;;;;;5044288;28;20467;-48
2021/11/04 12:01:10;;;;;;;5.30;4.80;;;11.90;66.30;;;;;;5040917;28;20435;-52
2021/11/04 12:03:36;;;;;;;5.23;4.73;;;11.90;65.80;;;;;;5045132;28;20449;-48
2021/11/04 12:06:07;;;;;;;5.60;4.67;;;11.90;65.90;;;;;;5035920;28;20439;-52
2021/11/04 12:08:35;;;;;;;6.77;6.10;;;11.70;65.50;;;;;;5043186;28;20818;-50
2021/11/04 12:11:04;;;;;;;6.10;4.90;;;11.60;66.40;;;;;;5047199;28;20965;-48
2021/11/04 12:13:35;;;;;;;6.80;5.63;;;11.70;66.20;;;;;;5038942;28;20497;-52
2021/11/04 12:16:15;;;;;;;6.73;6.00;;;11.70;66.30;;;;;;5036837;28;20435;-49
2021/11/04 12:18:51;;;;;;;7.03;5.40;;;11.60;66.60;;;;;;5037161;28;20506;-52
2021/11/04 12:21:27;;;;;;;6.40;5.80;;;11.90;66.10;;;;;;5037992;28;20432;-51
2021/11/04 12:23:55;;;;;;;7.37;5.60;;;12.00;65.60;;;;;;5049283;28;20438;-49
2021/11/04 12:26:28;;;;;;;6.30;5.70;;;12.10;65.50;;;;;;5049191;28;20514;-53
2021/11/04 12:28:54;;;;;;;6.20;5.10;;;12.10;65.30;;;;;;5054429;28;20938;-52
2021/11/04 12:31:22;;;;;;;6.20;5.40;;;12.10;65.10;;;;;;5070347;28;20476;-51
2021/11/04 12:33:52;;;;;;;6.80;5.43;;;12.00;65.40;;;;;;5054954;28;20220;-52
2021/11/04 12:36:32;;;;;;;6.77;6.07;;;12.20;65.10;;;;;;5044413;28;20446;-49
2021/11/04 12:38:58;;;;;;;5.60;5.10;;;12.20;64.90;;;;;;5048832;28;20438;-51
2021/11/04 12:41:23;;;;;;;7.47;6.10;;;12.30;64.60;;;;;;5047509;28;20435;-52
2021/11/04 12:43:50;;;;;;;8.53;6.57;;;12.20;64.10;;;;;;5060160;28;20196;-49
2021/11/04 12:46:25;;;;;;;7.07;6.27;;;12.20;64.20;;;;;;5051593;28;20864;-51
2021/11/04 12:49:02;;;;;;;9.43;6.80;;;12.30;64.10;;;;;;5041166;28;20446;-52
2021/11/04 12:51:43;;;;;;;7.47;6.77;;;12.20;63.90;;;;;;5049985;28;20532;-52